BIRKBGBW

Guest
Details From BIRK - Reykjavik
To BGBW - Narsarsuaq
Flight Number -
Tags decoded
Created
Modified
Stats Distance 672 nm / 1,245 km
Max Altitude 0 ft / 0 m
Waypoints 5
Social Downloads 3
Likes 0
Share VATSIM

Download

Looking for another format? Having issues loading an existing format? Contact us
Advertisement - Login to hide

Notes

Requested: BIRK EMBLA 6330N 6240N BGBW

Route

BIRK EMBLA 6330N 6240N BGBW

ID Type Via Altitude Latitude Longitude Leg Dist Tot Dist Heading (true) Name
O BIRK APT - 0 ft / 0 m 64.12964˚ -21.94061˚ - 0 nm - Reykjavik
EMBLA FIX - 0 ft / 0 m 63.47000˚ -26.98167˚ 139 nm 139 nm 256° / 251° -
6330N FIX - 0 ft / 0 m 63.00000˚ -30.00000˚ 86 nm 225 nm 252° / 250° -
6240N LATLON - 0 ft / 0 m 62.00000˚ -40.00000˚ 283 nm 509 nm 262° / 253° -
O BGBW APT - 0 ft / 0 m 61.16052˚ -45.42598˚ 163 nm 672 nm 254° / 250° Narsarsuaq

Altitude Profile

Advertisement - Login to hide

Weather


0- 5 10 15 20 25 30 35+ Temperature / ° C

Clouds and Precipitation
Forecast for 2018-05-22 12:00 UTC. Updated an hour ago

Ground ~20,000 ft ~40,000 ft Winds

BIRK

Details ICAO BIRK (RKV)
Name Reykjavik
Region Iceland
Timezone Atlantic/Reykjavik (UTC+0.0)
Stats Elevation 47 ft / 14 m (AMSL)
Location 64.129644° -21.940609°
Runways 3
Magnetic Variation 13.659° W

METAR

BIRK 221200Z 14026KT 9999 8000S -RA FEW024 OVC034 07/03 Q1008

Decode

TAF

TAF BIRK 220801Z 2209/2309 14018G28KT 9999 -RA SCT025 OVC035 TX09/2221Z TN05/2305Z BECMG 2209/2212 15028G38KT 5000 RADZ BKN010 OVC020 BECMG 2214/2216 15035G48KT PROB40 TEMPO 2215/2220 3000 RADZ BR BKN006 OVC012 BECMG 2220/2222 18022KT 9999 -SHRA SCT020 BKN030 TEMPO 2300/2305 SHRA

Decode

Departure Runways

ID Width Length Bearing (true) Bearing (mag) Surface Threshold Offset Overrun Length
01 148 ft / 45 m 5,129 ft / 1,563 m 355.27° 8.93° Asphalt 262 ft / 80 m 0 ft / 0 m
06 98 ft / 30 m 2,800 ft / 853 m 46.35° 60.01° Asphalt 299 ft / 91 m 0 ft / 0 m
13 148 ft / 45 m 4,023 ft / 1,226 m 116.28° 129.94° Asphalt 0 ft / 0 m 0 ft / 0 m
19 148 ft / 45 m 5,129 ft / 1,563 m 175.27° 188.93° Asphalt 0 ft / 0 m 0 ft / 0 m
24 98 ft / 30 m 2,800 ft / 853 m 226.37° 240.03° Asphalt 0 ft / 0 m 0 ft / 0 m
31 148 ft / 45 m 4,023 ft / 1,226 m 296.30° 309.96° Asphalt 213 ft / 65 m 0 ft / 0 m

BGBW

Details ICAO BGBW (UAK)
Name Narsarsuaq
Region Greenland
Timezone America/Godthab (UTC-2.0)
Stats Elevation 112 ft / 34 m (AMSL)
Location 61.160516° -45.425976°
Runways 1
Magnetic Variation 22.775° W

METAR

BGBW 221150Z 23009KT 9999 FEW100 BKN140 07/M10 Q0988

Decode

TAF

Not found

Destination Runways

ID Width Length Bearing (true) Bearing (mag) Surface Threshold Offset Overrun Length
07 148 ft / 45 m 5,921 ft / 1,805 m 40.57° 63.34° Concrete 0 ft / 0 m 0 ft / 0 m
25 148 ft / 45 m 5,921 ft / 1,805 m 220.58° 243.35° Concrete 0 ft / 0 m 279 ft / 85 m

Popular Alternatives